Pagina principale
METAR-TAF:

METAR-TAF

Aeroporti :

Aeroporto di Erevan

Yerevan, Armenia

latitudine: 40-08-50N, longitudine: 044-23-45E, altezza: 865 m

Osservazione

Il bollettino è stato emesso 17 minuti fa, alle 00:00 UTC
Vento 1 kt da direzioni variabili
Temperature 12°C
Umidità 62%
Pressione 1014 hPa
Visibilità 10 km o più

METAR: UDYZ 310000Z VRB01KT 9999 NSC 12/05 Q1014 R09/010070 NOSIG

Ora: 04:17 (00:17 UTC)

Previsione

Il bollettino è stato emesso 1 ora e 15 minuti fa, alle 23:02 UTC
Previsione valida dal 31 alle 00 UTC al 31 alle 24 UTC
Vento 6 kt da direzioni variabili
Visibilità 10 km o più
nessuna nube inferiore a 1500 m e nessun cumulonembo
Temporaneamente
dal 31 alle 12 UTC al 31 alle 24 UTC
Vento 20 kt da nord-est con raffiche fino a 30 kt
Poco nuvoloso ad un'altezza di 4000 ft, Cumulonembo.

TAF: UDYZ 302302Z 3100/3124 VRB06KT CAVOK TEMPO 3112/3124 04020G30KT FEW040CB

Osservazioni e previsioni meteorologiche di più di 4000 aeroporti (messaggi METAR e TAF).

Le stazioni disponibili sono rappresentate dai dischi gialli e rossi sulla carta.

Puntare il mouse per vedere il nome della stazione.

Clicca sopra per visualizzare le osservazioni e previsioni meteorologiche.

Per cambiare la mappa : fare clic sui pulsanti verdi con una croce nera per ingrandire, il pulsante verde con un trattino per diminuire, o sulla freccia verde per le mappe adiacenti.


METAR-TAF: